Time;durP1;ratioP1;P1;durP2;ratioP2;P2;SDS_P1;SDS_P2;PMS_P1;PMS_P2;Temp;Humidity;BMP_temperature;BMP_pressure;BME280_temperature;BME280_humidity;BME280_pressure;Samples;Min_cycle;Max_cycle;Signal;HPM_P1;HPM_P2
2023/10/09 00:01:50;;;;;;;18.20;10.13;;;;;;;15.20;100.00;101580.41;5015580;28;20038;-59
2023/10/09 00:04:16;;;;;;;17.48;9.45;;;;;;;15.16;100.00;101571.81;5014692;28;20121;-59
2023/10/09 00:06:42;;;;;;;16.15;9.52;;;;;;;15.11;100.00;101577.94;5018298;28;20061;-60
2023/10/09 00:09:30;;;;;;;17.98;9.07;;;;;;;15.05;100.00;101580.63;5015038;28;20033;-60
2023/10/09 00:11:57;;;;;;;17.30;9.20;;;;;;;15.01;100.00;101578.97;5007706;28;20033;-59
2023/10/09 00:14:30;;;;;;;12.75;7.90;;;;;;;14.98;100.00;101569.47;5013335;28;20045;-60
2023/10/09 00:17:17;;;;;;;12.60;7.88;;;;;;;14.95;100.00;101571.22;5011997;28;20030;-60
2023/10/09 00:19:51;;;;;;;16.50;8.32;;;;;;;14.91;100.00;101573.00;5017809;28;20066;-61
2023/10/09 00:22:26;;;;;;;15.13;8.73;;;;;;;14.91;100.00;101565.19;5015516;28;20044;-62
2023/10/09 00:25:11;;;;;;;15.02;8.25;;;;;;;14.91;100.00;101570.41;5007793;28;20121;-70
2023/10/09 00:27:39;;;;;;;;;;;;;;;14.87;100.00;101565.28;5013917;28;20124;-62
2023/10/09 00:30:06;;;;;;;17.73;8.68;;;;;;;14.79;100.00;101565.34;5013981;28;19909;-62
2023/10/09 00:32:33;;;;;;;17.35;9.30;;;;;;;14.75;100.00;101563.66;5018413;28;20049;-70
2023/10/09 00:35:35;;;;;;;21.65;10.30;;;;;;;14.71;100.00;101562.00;5018429;28;20046;-70
2023/10/09 00:37:45;;;;;;;13.50;8.15;;;;;;;14.69;100.00;101566.38;5013300;28;20079;-70
2023/10/09 00:40:28;;;;;;;17.73;8.77;;;;;;;14.65;100.00;101562.94;5013322;28;20068;-70
2023/10/09 00:42:55;;;;;;;20.70;9.70;;;;;;;14.55;100.00;101561.31;5013630;28;20064;-70
2023/10/09 00:45:27;;;;;;;13.57;8.70;;;;;;;14.53;100.00;101557.88;5011718;28;20037;-70
2023/10/09 00:47:58;;;;;;;16.20;8.27;;;;;;;14.50;100.00;101552.72;5019819;28;20057;-70
2023/10/09 00:50:25;;;;;;;13.27;8.05;;;;;;;14.49;100.00;101550.13;5016989;28;20042;-72
2023/10/09 00:53:01;;;;;;;13.43;8.30;;;;;;;14.47;100.00;101547.56;5011114;28;20123;-71
2023/10/09 00:55:27;;;;;;;17.95;9.98;;;;;;;14.45;100.00;101540.66;5016563;28;20040;-70
2023/10/09 00:58:08;;;;;;;14.15;8.70;;;;;;;14.43;100.00;101531.97;5011462;28;20088;-70
2023/10/09 01:00:45;;;;;;;17.40;9.07;;;;;;;14.40;100.00;101532.88;5013535;28;20060;-70
2023/10/09 01:11:09;;;;;;;22.33;10.52;;;;;;;14.14;100.00;101529.69;5017039;28;20676;-70
2023/10/09 01:16:17;;;;;;;15.38;9.18;;;;;;;14.05;100.00;101525.44;5009166;28;20034;-70
2023/10/09 01:19:13;;;;;;;22.17;11.13;;;;;;;14.01;100.00;101520.28;5000976;28;20044;-70
2023/10/09 01:21:39;;;;;;;15.95;9.48;;;;;;;13.96;100.00;101527.28;5016626;28;20045;-71
2023/10/09 01:24:08;;;;;;;19.00;8.30;;;;;;;13.92;100.00;101523.84;5014779;28;20022;-69
2023/10/09 01:26:44;;;;;;;15.82;9.05;;;;;;;13.89;100.00;101523.03;4994227;28;20030;-70
2023/10/09 01:29:14;;;;;;;17.85;10.98;;;;;;;13.87;100.00;101517.84;4997379;28;20487;-70
2023/10/09 01:31:44;;;;;;;14.57;9.38;;;;;;;13.84;100.00;101525.66;5000719;28;20682;-71
2023/10/09 01:34:10;;;;;;;18.75;9.18;;;;;;;13.84;100.00;101525.66;5003453;28;20125;-71
2023/10/09 01:36:39;;;;;;;13.82;8.23;;;;;;;13.84;100.00;101530.00;4999596;28;20158;-70
2023/10/09 01:39:23;;;;;;;18.55;10.05;;;;;;;13.81;100.00;101527.44;4996397;28;20040;-63
2023/10/09 01:41:52;;;;;;;17.90;9.13;;;;;;;13.81;100.00;101528.28;4997429;28;20041;-69
2023/10/09 01:44:18;;;;;;;14.98;8.50;;;;;;;13.80;100.00;101523.13;4994144;28;20044;-71
2023/10/09 01:46:45;;;;;;;16.17;9.20;;;;;;;13.80;100.00;101516.16;4994061;28;20033;-70
2023/10/09 01:49:17;;;;;;;16.67;9.80;;;;;;;13.79;100.00;101506.66;5000535;28;20046;-70
2023/10/09 01:51:42;;;;;;;20.00;9.45;;;;;;;13.79;100.00;101509.25;4995164;28;20131;-70
2023/10/09 01:54:07;;;;;;;20.02;10.00;;;;;;;13.72;100.00;101505.00;4995099;28;20034;-70
2023/10/09 01:56:36;;;;;;;26.55;9.35;;;;;;;13.64;100.00;101503.34;4993200;28;20033;-70
2023/10/09 01:59:05;;;;;;;19.27;9.45;;;;;;;13.62;100.00;101495.56;4990998;28;20700;-70
2023/10/09 02:01:36;;;;;;;16.80;9.13;;;;;;;13.59;100.00;101490.41;4997110;28;20535;-70
2023/10/09 02:04:11;;;;;;;20.77;9.25;;;;;;;13.59;100.00;101494.75;4997372;28;20144;-70
2023/10/09 02:06:37;;;;;;;13.52;8.77;;;;;;;13.59;100.00;101490.41;4998683;28;20041;-70
2023/10/09 02:09:06;;;;;;;15.45;9.02;;;;;;;13.62;100.00;101492.97;4990942;28;20532;-70
2023/10/09 02:11:41;;;;;;;17.60;8.52;;;;;;;13.62;100.00;101490.38;5018869;28;20041;-70
2023/10/09 02:14:19;;;;;;;12.75;7.85;;;;;;;13.65;100.00;101492.09;5016774;28;20609;-71
2023/10/09 02:17:01;;;;;;;14.73;7.95;;;;;;;13.68;100.00;101499.84;5015784;28;20819;-70
2023/10/09 02:19:38;;;;;;;13.73;8.15;;;;;;;13.74;100.00;101505.00;5024752;28;20033;-62
2023/10/09 02:22:13;;;;;;;16.52;8.32;;;;;;;13.78;100.00;101502.34;4999353;28;20050;-62
2023/10/09 02:24:50;;;;;;;14.75;7.93;;;;;;;13.82;100.00;101506.63;5014244;28;20088;-63
2023/10/09 02:30:08;;;;;;;14.85;9.07;;;;;;;13.90;100.00;101496.16;5013221;28;20048;-62
2023/10/09 02:32:33;;;;;;;22.00;10.27;;;;;;;13.91;100.00;101490.09;5008198;28;20114;-62
2023/10/09 02:35:18;;;;;;;16.85;9.52;;;;;;;13.89;100.00;101497.88;5012924;28;20033;-62
2023/10/09 02:37:46;;;;;;;19.55;8.85;;;;;;;13.90;100.00;101496.16;5017684;28;20041;-63
2023/10/09 02:40:15;;;;;;;14.35;8.32;;;;;;;13.90;100.00;101491.81;5021038;28;20041;-62
2023/10/09 02:42:42;;;;;;;17.58;9.60;;;;;;;13.90;100.00;101502.22;5020195;28;20089;-62
2023/10/09 02:45:09;;;;;;;15.82;8.70;;;;;;;13.88;100.00;101509.19;5019229;28;20036;-62
2023/10/09 02:47:39;;;;;;;21.33;10.27;;;;;;;13.85;100.00;101506.59;5017123;28;20021;-62
2023/10/09 02:50:19;;;;;;;14.93;8.77;;;;;;;13.88;100.00;101500.50;5016584;28;20490;-62
2023/10/09 02:52:46;;;;;;;16.00;9.07;;;;;;;13.89;100.00;101494.44;5019264;28;20230;-62
2023/10/09 02:55:24;;;;;;;18.67;10.15;;;;;;;13.89;100.00;101495.28;5016727;28;20041;-62
2023/10/09 02:58:04;;;;;;;24.70;11.15;;;;;;;13.86;100.00;101486.69;5019269;28;20033;-63
2023/10/09 03:00:31;;;;;;;18.02;9.75;;;;;;;13.82;100.00;101490.19;5018222;28;20033;-62
2023/10/09 03:02:58;;;;;;;15.27;10.05;;;;;;;13.83;100.00;101491.91;5008079;28;20228;-62
2023/10/09 03:05:29;;;;;;;19.92;9.77;;;;;;;13.83;100.00;101489.31;5018626;28;20035;-62
2023/10/09 03:07:55;;;;;;;11.10;8.43;;;;;;;13.82;100.00;101491.03;5021874;28;20037;-62
2023/10/09 03:10:23;;;;;;;21.45;10.13;;;;;;;13.83;100.00;101495.34;5005640;28;20102;-61
2023/10/09 03:12:53;;;;;;;15.35;9.30;;;;;;;13.84;100.00;101491.88;4993766;28;20034;-62
2023/10/09 03:15:22;;;;;;;19.00;8.98;;;;;;;13.86;100.00;101486.69;4991713;28;20072;-62
2023/10/09 03:17:48;;;;;;;16.17;9.68;;;;;;;13.87;100.00;101490.97;4995116;28;20135;-62
2023/10/09 03:20:17;;;;;;;15.48;8.88;;;;;;;13.87;100.00;101483.19;4997084;28;20165;-62
2023/10/09 03:22:44;;;;;;;15.88;9.30;;;;;;;13.89;100.00;101491.84;4999404;28;20065;-60
2023/10/09 03:25:19;;;;;;;14.88;8.50;;;;;;;13.90;100.00;101486.63;4996992;28;20057;-59
2023/10/09 03:27:45;;;;;;;16.77;9.52;;;;;;;13.91;100.00;101485.75;4998010;28;20045;-59
2023/10/09 03:30:25;;;;;;;16.17;8.68;;;;;;;13.94;100.00;101482.25;4994723;28;20045;-60
2023/10/09 03:32:51;;;;;;;15.18;8.95;;;;;;;13.92;100.00;101479.66;4996579;28;20030;-61
2023/10/09 03:35:24;;;;;;;18.05;9.98;;;;;;;13.89;100.00;101484.06;4995896;28;20104;-60
2023/10/09 03:38:00;;;;;;;19.38;9.35;;;;;;;13.85;100.00;101484.94;4997708;28;20049;-64
2023/10/09 03:40:25;;;;;;;14.52;8.77;;;;;;;13.86;100.00;101484.91;4998193;28;20124;-64
2023/10/09 03:42:52;;;;;;;19.13;9.32;;;;;;;13.88;100.00;101484.91;4996434;28;20823;-64
2023/10/09 03:45:24;;;;;;;18.02;8.70;;;;;;;13.91;100.00;101484.88;4996615;28;20065;-63
2023/10/09 03:47:56;;;;;;;17.75;10.07;;;;;;;13.92;100.00;101484.03;4995477;28;20073;-63
2023/10/09 03:50:26;;;;;;;18.95;9.43;;;;;;;13.87;100.00;101489.25;5000830;28;20046;-63
2023/10/09 03:52:53;;;;;;;16.92;9.48;;;;;;;13.86;100.00;101494.47;4997889;28;20033;-64
2023/10/09 03:55:21;;;;;;;14.68;8.63;;;;;;;13.87;100.00;101485.78;4995382;28;20072;-63
2023/10/09 03:57:47;;;;;;;15.68;8.98;;;;;;;13.89;100.00;101491.84;4993332;28;20042;-60
2023/10/09 04:00:27;;;;;;;17.73;8.63;;;;;;;13.89;100.00;101489.25;4997006;28;20037;-59
2023/10/09 04:02:57;;;;;;;16.50;8.30;;;;;;;13.89;100.00;101497.88;4993320;28;20034;-60
2023/10/09 04:05:23;;;;;;;16.40;9.10;;;;;;;13.89;100.00;101492.69;4996529;28;20065;-59
2023/10/09 04:07:49;;;;;;;14.95;8.32;;;;;;;13.89;100.00;101484.88;5000646;28;20523;-59
2023/10/09 04:10:43;;;;;;;17.67;8.90;;;;;;;13.91;100.00;101488.34;5009288;28;20045;-60
2023/10/09 04:13:12;;;;;;;19.58;9.18;;;;;;;13.91;100.00;101493.56;5013751;28;20049;-70
2023/10/09 04:15:37;;;;;;;18.25;9.07;;;;;;;13.90;100.00;101484.03;5003662;28;20041;-70
2023/10/09 04:18:06;;;;;;;14.43;8.50;;;;;;;13.91;100.00;101480.56;5015359;28;20782;-70
2023/10/09 04:23:04;;;;;;;15.40;9.88;;;;;;;13.90;100.00;101484.03;5000452;28;20046;-70
2023/10/09 04:25:40;;;;;;;14.25;8.15;;;;;;;13.93;100.00;101471.00;4995627;28;20053;-70
2023/10/09 04:28:18;;;;;;;12.20;8.68;;;;;;;13.94;100.00;101464.94;4996129;28;20050;-70
2023/10/09 04:31:06;;;;;;;12.52;8.07;;;;;;;13.98;100.00;101463.13;4994975;28;20065;-70
2023/10/09 04:36:22;;;;;;;14.75;8.65;;;;;;;14.03;100.00;101459.63;4998199;28;20432;-70
2023/10/09 04:41:51;;;;;;;14.40;7.78;;;;;;;14.09;100.00;101471.69;5016688;28;20049;-70
2023/10/09 04:47:18;;;;;;;18.25;8.40;;;;;;;14.19;100.00;101473.28;5001002;28;20046;-71
2023/10/09 04:57:45;;;;;;;12.95;7.22;;;;;;;14.42;100.00;101455.72;5000973;28;20030;-70
2023/10/09 05:02:54;;;;;;;14.80;7.85;;;;;;;14.46;100.00;101444.38;4998049;28;20045;-70
2023/10/09 05:08:19;;;;;;;12.40;6.60;;;;;;;14.55;100.00;101459.00;4997169;28;20311;-62
2023/10/09 05:16:18;;;;;;;10.07;7.13;;;;;;;14.61;100.00;101448.50;4990899;28;20041;-62
2023/10/09 05:18:55;;;;;;;10.30;6.93;;;;;;;14.64;100.00;101456.25;5000946;28;20041;-62
2023/10/09 05:29:19;;;;;;;13.65;7.68;;;;;;;14.72;100.00;101458.78;5010721;28;20064;-62
2023/10/09 05:34:34;;;;;;;12.55;6.95;;;;;;;14.76;100.00;101473.44;5012207;28;20080;-70
2023/10/09 05:37:16;;;;;;;10.43;6.10;;;;;;;14.75;100.00;101467.38;5018542;28;20048;-70
2023/10/09 05:39:43;;;;;;;11.55;5.82;;;;;;;14.74;100.00;101460.47;5011325;28;20038;-70
2023/10/09 05:42:17;;;;;;;12.07;5.93;;;;;;;14.74;100.00;101450.06;5018588;28;20488;-69
2023/10/09 05:47:31;;;;;;;11.98;7.18;;;;;;;14.74;100.00;101449.19;5016111;28;20056;-70
2023/10/09 05:50:34;;;;;;;9.50;6.18;;;;;;;14.73;100.00;101450.94;5015233;28;20773;-70
2023/10/09 06:03:25;;;;;;;12.07;6.27;;;;;;;14.76;100.00;101463.03;5010398;28;20040;-70
2023/10/09 06:08:27;;;;;;;13.20;6.25;;;;;;;14.79;100.00;101453.44;5013454;28;20041;-70
2023/10/09 06:11:06;;;;;;;12.40;6.32;;;;;;;14.82;100.00;101457.75;5013078;28;20666;-70
2023/10/09 06:13:39;;;;;;;12.20;6.38;;;;;;;14.85;100.00;101460.31;5010960;28;20064;-70
2023/10/09 06:16:19;;;;;;;11.52;6.28;;;;;;;14.89;100.00;101469.78;5015247;28;20044;-71
2023/10/09 06:18:54;;;;;;;13.00;6.35;;;;;;;14.94;100.00;101471.44;5014350;28;20044;-71
2023/10/09 06:24:23;;;;;;;14.23;6.78;;;;;;;15.01;100.00;101456.59;5010608;28;20128;-64
2023/10/09 06:32:34;;;;;;;12.13;7.45;;;;;;;15.15;100.00;101459.84;5011784;28;20157;-64
2023/10/09 06:35:16;;;;;;;9.98;6.75;;;;;;;15.23;100.00;101476.19;5010370;28;20041;-65
2023/10/09 06:43:09;;;;;;;;;;;;;;;15.49;100.00;101483.59;5014282;28;20077;-70
2023/10/09 06:45:45;;;;;;;12.85;7.15;;;;;;;15.55;100.00;101481.72;5017137;28;19920;-70
2023/10/09 06:58:55;;;;;;;16.30;7.63;;;;;;;15.78;100.00;101496.13;5017463;28;20041;-71
2023/10/09 07:03:53;;;;;;;14.13;6.97;;;;;;;15.94;100.00;101501.03;5006761;28;20045;-70
2023/10/09 07:06:56;;;;;;;20.08;8.00;;;;;;;16.06;100.00;101505.16;5015529;28;20121;-69
2023/10/09 07:17:15;;;;;;;14.63;7.72;;;;;;;16.23;100.00;101530.06;5016977;28;20041;-71
2023/10/09 07:24:56;;;;;;;12.27;7.47;;;;;;;16.30;100.00;101551.63;5011169;28;20037;-63
2023/10/09 07:27:51;;;;;;;16.88;7.80;;;;;;;16.32;100.00;101545.50;5014650;28;20041;-63
2023/10/09 07:35:48;;;;;;;14.10;7.53;;;;;;;16.52;100.00;101552.09;5013291;28;20053;-64
2023/10/09 07:38:22;;;;;;;13.30;6.55;;;;;;;16.59;100.00;101546.69;5015067;28;20045;-64
2023/10/09 07:43:39;;;;;;;16.17;7.32;;;;;;;16.79;100.00;101551.56;5017290;28;20037;-63
2023/10/09 07:48:51;;;;;;;12.23;7.38;;;;;;;16.95;100.00;101550.31;5017765;28;20120;-63
2023/10/09 07:51:19;;;;;;;17.27;8.25;;;;;;;17.08;100.00;101538.69;5000501;28;20033;-64
2023/10/09 07:53:45;;;;;;;14.95;7.63;;;;;;;17.24;100.00;101539.22;5018489;28;20041;-65
2023/10/09 07:56:20;;;;;;;14.23;7.00;;;;;;;17.35;100.00;101540.69;5015173;28;20433;-65
2023/10/09 07:58:46;;;;;;;12.35;7.00;;;;;;;17.49;100.00;101540.34;5015519;28;20105;-65
2023/10/09 08:01:16;;;;;;;9.00;6.03;;;;;;;17.57;100.00;101545.41;5022356;28;20038;-64
2023/10/09 08:03:46;;;;;;;16.60;6.93;;;;;;;17.61;100.00;101541.78;5012696;28;20033;-65
2023/10/09 08:14:20;;;;;;;9.02;5.63;;;;;;;17.84;100.00;101553.41;5014579;28;20049;-65
2023/10/09 08:16:46;;;;;;;13.13;6.55;;;;;;;17.91;100.00;101555.00;5013555;28;20041;-65
2023/10/09 08:24:43;;;;;;;10.20;6.68;;;;;;;18.14;100.00;101558.75;5017439;28;20791;-64
2023/10/09 08:30:12;;;;;;;9.60;6.30;;;;;;;18.20;98.67;101569.03;5013665;28;20088;-63
2023/10/09 08:32:42;;;;;;;14.15;6.72;;;;;;;18.31;99.53;101578.34;4989832;28;20041;-63
2023/10/09 08:35:29;;;;;;;12.30;6.28;;;;;;;18.39;98.96;101576.38;4990206;28;20046;-63
2023/10/09 08:37:58;;;;;;;16.23;7.03;;;;;;;18.48;98.82;101559.53;5008773;28;20574;-64
2023/10/09 08:40:37;;;;;;;13.35;6.00;;;;;;;18.52;97.54;101558.56;5007272;28;20500;-63
2023/10/09 08:43:14;;;;;;;11.05;6.28;;;;;;;18.63;97.67;101555.63;5001724;28;20102;-64
2023/10/09 08:45:44;;;;;;;12.73;6.07;;;;;;;18.71;97.10;101558.88;5018952;28;20033;-64
2023/10/09 08:48:15;;;;;;;8.80;5.88;;;;;;;18.77;96.44;101563.94;5012387;28;20038;-63
2023/10/09 08:50:44;;;;;;;11.68;6.53;;;;;;;18.87;96.00;101554.94;5016646;28;20594;-64
2023/10/09 08:53:11;;;;;;;10.40;6.40;;;;;;;18.85;94.89;101536.63;5015322;28;20584;-64
2023/10/09 08:55:41;;;;;;;13.15;6.95;;;;;;;18.84;95.12;101541.91;5016221;28;20029;-64
2023/10/09 08:58:20;;;;;;;11.52;6.40;;;;;;;18.87;94.71;101549.72;5014147;28;20065;-72
2023/10/09 09:00:47;;;;;;;12.07;6.38;;;;;;;18.86;94.79;101538.38;5017502;28;20758;-64
2023/10/09 09:03:16;;;;;;;13.63;6.72;;;;;;;18.85;93.55;101518.31;5011958;28;20029;-64
2023/10/09 09:05:56;;;;;;;11.10;5.93;;;;;;;18.97;93.65;101551.13;5014584;28;20045;-64
2023/10/09 09:08:25;;;;;;;12.23;6.53;;;;;;;19.06;91.24;101569.19;5017447;28;20164;-64
2023/10/09 09:11:22;;;;;;;13.13;6.80;;;;;;;19.18;89.82;101568.81;5016095;28;20052;-64
2023/10/09 09:14:09;;;;;;;18.05;6.93;;;;;;;19.28;87.44;101572.88;5015504;28;20973;-64
2023/10/09 09:16:44;;;;;;;12.05;6.32;;;;;;;19.43;87.02;101572.41;5012036;28;20091;-63
2023/10/09 09:21:40;;;;;;;12.50;6.28;;;;;;;19.65;84.18;101569.91;5017999;28;20041;-63
2023/10/09 09:24:26;;;;;;;13.30;6.07;;;;;;;19.66;82.90;101573.41;5010556;28;20040;-63
2023/10/09 09:26:59;;;;;;;10.98;5.50;;;;;;;19.68;81.72;101538.34;5011332;28;20075;-62
2023/10/09 09:29:39;;;;;;;16.52;6.07;;;;;;;19.74;82.55;101511.06;5015695;28;20037;-62
2023/10/09 09:32:20;;;;;;;13.95;6.00;;;;;;;19.71;82.88;101467.41;5007927;28;20037;-63
2023/10/09 09:34:49;;;;;;;13.45;6.45;;;;;;;19.78;84.09;101466.28;5012636;28;20038;-62
2023/10/09 09:40:15;;;;;;;11.63;6.07;;;;;;;20.11;82.08;101483.50;5015852;28;20084;-62
2023/10/09 09:42:48;;;;;;;11.20;6.05;;;;;;;20.18;80.13;101492.03;5015730;28;20037;-62
2023/10/09 09:45:14;;;;;;;11.00;5.85;;;;;;;20.38;80.06;101486.88;5009474;28;20036;-62
2023/10/09 09:47:47;;;;;;;10.43;5.72;;;;;;;20.45;79.91;101477.84;5011918;28;21347;-62
2023/10/09 09:50:22;;;;;;;10.15;5.97;;;;;;;20.43;77.88;101452.56;5014924;28;20044;-62
2023/10/09 09:52:53;;;;;;;10.18;5.60;;;;;;;20.50;79.82;101475.91;5012910;28;20758;-63
2023/10/09 09:55:22;;;;;;;12.85;5.75;;;;;;;20.54;79.94;101450.41;5012623;28;21030;-63
2023/10/09 09:57:51;;;;;;;8.75;5.20;;;;;;;20.69;80.29;101455.94;5013144;28;20134;-62
2023/10/09 10:02:58;;;;;;;13.90;6.65;;;;;;;20.91;76.67;101406.00;5013451;28;20084;-62
2023/10/09 10:05:29;;;;;;;11.68;5.63;;;;;;;21.14;77.28;101416.44;5012392;28;20037;-63
2023/10/09 10:07:57;;;;;;;12.27;6.32;;;;;;;21.07;74.79;101386.06;5015057;28;20072;-62
2023/10/09 10:11:04;;;;;;;9.02;5.15;;;;;;;21.14;74.94;101405.03;5012327;28;20612;-62
2023/10/09 10:13:41;;;;;;;10.35;5.72;;;;;;;21.17;74.67;101410.19;5012241;28;20029;-63
2023/10/09 10:16:19;;;;;;;10.77;4.97;;;;;;;21.20;72.61;101378.50;5013707;28;20053;-62
2023/10/09 10:19:07;;;;;;;6.65;4.45;;;;;;;21.32;71.44;101358.72;5013722;28;20809;-63
2023/10/09 10:21:39;;;;;;;9.23;4.60;;;;;;;21.38;70.73;101369.81;5013127;28;20559;-63
2023/10/09 10:24:28;;;;;;;7.25;4.40;;;;;;;21.42;70.23;101360.91;5014261;28;20042;-63
2023/10/09 10:27:18;;;;;;;9.63;4.80;;;;;;;21.58;67.07;101317.22;4991656;28;20061;-62
2023/10/09 10:29:46;;;;;;;7.78;4.18;;;;;;;21.78;68.41;101340.03;4989311;28;20046;-64
2023/10/09 10:32:12;;;;;;;9.48;4.53;;;;;;;21.97;67.83;101332.16;4993276;28;20145;-64
2023/10/09 10:34:46;;;;;;;7.60;4.28;;;;;;;22.09;65.16;101277.09;4984362;28;20663;-64
2023/10/09 10:37:13;;;;;;;7.05;4.20;;;;;;;22.25;65.97;101298.31;4988641;28;20046;-64
2023/10/09 10:39:59;;;;;;;11.57;4.10;;;;;;;22.36;65.55;101306.53;4987735;28;20038;-65
2023/10/09 10:42:57;;;;;;;9.52;4.30;;;;;;;22.50;65.63;101304.09;4990158;28;20480;-63
2023/10/09 10:45:43;;;;;;;6.72;4.38;;;;;;;22.61;63.92;101290.41;4986190;28;20069;-63
2023/10/09 10:48:09;;;;;;;7.03;3.80;;;;;;;22.69;62.29;101265.38;4981274;28;20080;-64
2023/10/09 10:50:35;;;;;;;7.40;4.10;;;;;;;22.81;60.70;101241.03;4996513;28;20034;-64
2023/10/09 10:53:15;;;;;;;6.00;3.72;;;;;;;22.83;59.01;101219.84;4991522;28;20104;-65
2023/10/09 10:59:26;;;;;;;6.80;4.20;;;;;;;23.11;59.90;101251.78;4995904;28;20049;-64
2023/10/09 11:04:24;;;;;;;10.02;4.25;;;;;;;23.28;57.51;101220.13;4994191;28;20134;-63
2023/10/09 11:07:16;;;;;;;6.70;3.67;;;;;;;23.27;55.39;101181.47;4994831;28;20049;-63
2023/10/09 11:15:46;;;;;;;8.13;4.35;;;;;;;23.36;54.86;101202.06;4989307;28;20053;-63
2023/10/09 11:18:19;;;;;;;7.63;3.97;;;;;;;23.40;55.75;101222.09;4992631;28;20113;-63
2023/10/09 11:20:56;;;;;;;10.27;4.53;;;;;;;23.43;54.67;101221.06;4995018;28;20059;-62
2023/10/09 11:29:14;;;;;;;9.77;4.60;;;;;;;23.23;61.67;101343.50;4993236;28;20041;-63
2023/10/09 11:31:45;;;;;;;11.35;4.30;;;;;;;23.26;60.84;101339.84;5006193;28;20045;-63
2023/10/09 11:34:28;;;;;;;11.45;4.88;;;;;;;23.33;61.52;101347.34;4993452;28;20261;-63
2023/10/09 11:37:12;;;;;;;7.05;4.13;;;;;;;23.41;58.22;101294.19;4993284;28;20038;-63
2023/10/09 11:39:51;;;;;;;11.65;4.53;;;;;;;23.48;55.99;101249.88;4993905;28;20119;-63
2023/10/09 11:42:37;;;;;;;9.32;4.93;;;;;;;23.52;54.95;101227.63;4994078;28;20165;-62
2023/10/09 11:45:24;;;;;;;10.23;4.55;;;;;;;23.59;53.78;101221.09;4988987;28;20048;-63
2023/10/09 11:47:57;;;;;;;14.48;5.50;;;;;;;23.51;58.72;101305.13;5015608;28;20103;-63
2023/10/09 11:55:49;;;;;;;11.43;4.88;;;;;;;23.26;62.19;101345.97;4996006;28;20050;-63
2023/10/09 11:58:25;;;;;;;7.90;4.65;;;;;;;23.32;61.98;101345.66;4994331;28;20045;-70
2023/10/09 12:01:16;;;;;;;13.55;5.25;;;;;;;23.37;61.57;101340.13;4996726;28;20592;-60
2023/10/09 12:03:41;;;;;;;18.00;5.65;;;;;;;23.36;60.93;101328.72;5003409;28;20076;-62
2023/10/09 12:06:13;;;;;;;26.08;6.90;;;;;;;23.50;60.76;101333.28;5014928;28;20508;-68
2023/10/09 12:08:41;;;;;;;16.52;5.28;;;;;;;23.51;62.48;101361.41;5015716;28;20076;-69
2023/10/09 12:11:10;;;;;;;12.70;5.43;;;;;;;23.47;63.18;101367.75;5015525;28;20044;-59
2023/10/09 12:13:42;;;;;;;18.20;5.88;;;;;;;23.53;62.31;101346.31;5001698;28;20039;-60
2023/10/09 12:16:09;;;;;;;16.10;5.72;;;;;;;23.64;59.21;101296.44;4996580;28;20038;-60
2023/10/09 12:18:36;;;;;;;12.05;5.38;;;;;;;23.59;57.25;101264.19;4997164;28;20868;-59
2023/10/09 12:21:04;;;;;;;9.00;4.70;;;;;;;23.66;56.94;101259.44;4996317;28;20029;-59
2023/10/09 12:23:35;;;;;;;8.32;4.75;;;;;;;23.75;57.24;101257.13;4999524;28;20038;-62
2023/10/09 12:26:01;;;;;;;10.93;4.97;;;;;;;23.76;56.35;101231.56;4994966;28;20045;-63
2023/10/09 12:28:28;;;;;;;11.55;4.55;;;;;;;23.78;55.86;101229.69;4992628;28;20042;-63
2023/10/09 12:30:53;;;;;;;7.55;4.65;;;;;;;23.84;55.44;101231.97;4997325;28;20041;-64
2023/10/09 12:33:21;;;;;;;9.77;4.68;;;;;;;23.88;55.33;101239.66;4994614;28;20381;-62
2023/10/09 12:35:51;;;;;;;9.88;4.35;;;;;;;23.93;54.91;101224.41;4991821;28;20537;-62
2023/10/09 12:38:18;;;;;;;12.57;5.20;;;;;;;23.94;53.94;101210.31;4992672;28;20042;-63
2023/10/09 12:40:50;;;;;;;10.07;4.85;;;;;;;23.97;53.01;101209.28;4995905;28;20062;-62
2023/10/09 12:43:19;;;;;;;7.63;4.38;;;;;;;23.92;51.60;101193.69;4990714;28;20030;-62
2023/10/09 12:45:46;;;;;;;8.57;4.30;;;;;;;23.98;50.24;101174.88;4996095;28;20231;-62
2023/10/09 12:48:12;;;;;;;11.32;4.38;;;;;;;24.01;49.86;101168.56;4994962;28;20048;-62
2023/10/09 12:50:47;;;;;;;10.68;4.25;;;;;;;24.08;50.24;101169.91;4988585;28;22234;-62
2023/10/09 12:53:17;;;;;;;9.70;4.57;;;;;;;24.03;50.22;101177.25;4994782;28;20420;-61
2023/10/09 12:55:43;;;;;;;12.32;4.18;;;;;;;23.96;50.92;101191.72;4993359;28;20149;-61
2023/10/09 12:58:10;;;;;;;8.10;3.95;;;;;;;23.89;51.50;101187.72;4989832;28;20042;-61
2023/10/09 13:00:44;;;;;;;6.38;3.65;;;;;;;23.85;51.20;101187.03;4990785;28;20034;-62
2023/10/09 13:03:16;;;;;;;6.45;3.45;;;;;;;23.80;51.51;101189.09;4995202;28;20128;-62
2023/10/09 13:05:51;;;;;;;6.68;3.40;;;;;;;23.76;52.27;101198.09;5016284;28;20025;-62
2023/10/09 13:08:21;;;;;;;11.18;4.00;;;;;;;23.70;51.84;101208.16;5009132;28;20046;-62
2023/10/09 13:11:00;;;;;;;7.72;3.55;;;;;;;23.67;51.80;101205.69;5018404;28;20043;-61
2023/10/09 13:13:43;;;;;;;9.05;4.13;;;;;;;23.70;52.34;101219.56;5012096;28;20120;-61
2023/10/09 13:16:24;;;;;;;12.68;4.43;;;;;;;23.67;51.77;101210.97;5012284;28;20034;-62
2023/10/09 13:18:54;;;;;;;10.88;4.47;;;;;;;23.63;50.72;101188.34;5011995;28;20038;-62
2023/10/09 13:21:22;;;;;;;6.53;4.20;;;;;;;23.60;51.94;101209.63;5011002;28;20040;-59
2023/10/09 13:23:49;;;;;;;8.73;3.63;;;;;;;23.55;52.55;101232.75;5014007;28;20037;-59
2023/10/09 13:26:18;;;;;;;6.47;3.42;;;;;;;23.53;53.19;101239.91;5017521;28;20033;-59
2023/10/09 13:28:52;;;;;;;8.10;3.90;;;;;;;23.49;53.69;101243.63;5015876;28;20095;-60
2023/10/09 13:31:18;;;;;;;7.18;4.07;;;;;;;23.40;52.80;101230.00;5011311;28;20044;-59
2023/10/09 13:33:44;;;;;;;12.52;3.53;;;;;;;23.42;53.38;101243.13;5016266;28;20103;-63
2023/10/09 13:36:19;;;;;;;8.18;4.20;;;;;;;23.42;53.96;101262.44;5014514;28;20021;-63
2023/10/09 13:38:47;;;;;;;6.78;4.05;;;;;;;23.38;53.34;101247.72;5014237;28;20992;-63
2023/10/09 13:41:13;;;;;;;8.93;4.28;;;;;;;23.36;53.68;101256.66;5014815;28;20050;-69
2023/10/09 13:43:40;;;;;;;11.90;4.50;;;;;;;23.39;54.34;101264.41;5012313;28;20041;-69
2023/10/09 13:46:08;;;;;;;9.13;4.38;;;;;;;23.38;54.46;101260.91;5011152;28;20042;-69
2023/10/09 13:48:38;;;;;;;9.75;3.85;;;;;;;23.36;54.24;101254.84;5014317;28;20041;-69
2023/10/09 13:51:23;;;;;;;10.27;4.57;;;;;;;23.35;52.78;101239.13;5009968;28;20048;-69
2023/10/09 13:53:49;;;;;;;11.38;4.65;;;;;;;23.34;53.18;101240.91;4996852;28;20718;-69
2023/10/09 13:56:18;;;;;;;10.98;4.38;;;;;;;23.34;51.52;101221.56;4997067;28;20042;-69
2023/10/09 13:58:49;;;;;;;11.60;4.63;;;;;;;23.31;52.36;101229.66;4996663;28;20520;-69
2023/10/09 14:01:27;;;;;;;8.00;3.85;;;;;;;23.29;52.67;101242.06;4998730;28;20092;-68
2023/10/09 14:04:00;;;;;;;8.73;3.85;;;;;;;23.25;52.44;101230.84;4991904;28;20589;-68
2023/10/09 14:06:33;;;;;;;11.10;4.30;;;;;;;23.23;53.18;101247.69;4994766;28;20420;-69
2023/10/09 14:09:04;;;;;;;9.15;4.45;;;;;;;23.16;54.04;101260.28;4998210;28;20393;-68
2023/10/09 14:11:31;;;;;;;8.23;4.45;;;;;;;23.06;52.58;101234.50;5012131;28;20487;-70
2023/10/09 14:13:59;;;;;;;6.50;3.90;;;;;;;23.01;50.32;101189.91;4997726;28;20042;-69
2023/10/09 14:16:29;;;;;;;10.95;4.80;;;;;;;23.00;50.55;101197.91;4997120;28;20038;-69
2023/10/09 14:18:59;;;;;;;10.18;4.35;;;;;;;22.96;50.53;101196.34;4995476;28;20034;-70
2023/10/09 14:21:25;;;;;;;11.40;4.38;;;;;;;22.92;51.18;101215.91;4999715;28;20148;-69
2023/10/09 14:23:56;;;;;;;12.02;3.90;;;;;;;22.89;51.30;101211.63;5010634;28;20065;-69
2023/10/09 14:26:25;;;;;;;10.18;4.25;;;;;;;22.81;52.67;101233.13;5012879;28;20034;-69
2023/10/09 14:28:52;;;;;;;11.50;4.97;;;;;;;22.78;52.46;101224.53;5013923;28;20064;-69